createdAt,value
2023-01-21T00:00:38.024Z,1.42
2023-01-21T00:01:40.014Z,2.60
2023-01-21T00:02:41.991Z,1.55
2023-01-21T00:03:44.949Z,1.40
2023-01-21T00:04:47.091Z,1.27
2023-01-21T00:05:49.075Z,1.20
2023-01-21T00:06:51.075Z,1.13
2023-01-21T00:07:53.023Z,1.00
2023-01-21T00:08:54.986Z,1.45
2023-01-21T00:09:56.919Z,1.40
2023-01-21T00:11:07.973Z,1.77
2023-01-21T00:12:10.098Z,2.20
2023-01-21T00:13:12.087Z,1.20
2023-01-21T00:14:14.564Z,1.30
2023-01-21T00:15:17.172Z,1.10
2023-01-21T00:16:19.080Z,1.30
2023-01-21T00:17:21.074Z,1.88
2023-01-21T00:18:23.083Z,1.20
2023-01-21T00:19:25.974Z,0.90
2023-01-21T00:20:27.974Z,1.02
2023-01-21T00:21:29.945Z,0.80
2023-01-21T00:22:32.385Z,1.23
2023-01-21T00:23:34.355Z,1.10
2023-01-21T00:24:36.295Z,1.25
2023-01-21T00:25:38.202Z,1.25
2023-01-21T00:26:40.100Z,2.43
2023-01-21T00:27:42.095Z,1.48
2023-01-21T00:28:44.897Z,2.08
2023-01-21T00:29:47.444Z,1.90
2023-01-21T00:30:52.266Z,1.38
2023-01-21T00:31:55.905Z,1.40
2023-01-21T00:32:57.871Z,1.30
2023-01-21T00:33:59.917Z,1.00
2023-01-21T00:35:01.955Z,1.20
2023-01-21T00:36:07.064Z,1.10
2023-01-21T00:37:09.160Z,1.30
2023-01-21T00:38:11.136Z,1.30
2023-01-21T00:39:13.085Z,1.17
2023-01-21T00:40:15.232Z,1.20
2023-01-21T00:41:17.968Z,1.27
2023-01-21T00:42:19.917Z,1.30
2023-01-21T00:43:22.303Z,1.30
2023-01-21T00:44:24.276Z,1.50
2023-01-21T00:45:26.322Z,1.60
2023-01-21T00:46:28.852Z,1.67
2023-01-21T00:47:30.919Z,1.60
2023-01-21T00:48:33.202Z,1.73
2023-01-21T00:49:35.128Z,1.80
2023-01-21T00:50:37.129Z,1.60
2023-01-21T00:51:39.089Z,2.08
2023-01-21T00:52:41.068Z,2.20
2023-01-21T00:53:43.163Z,1.30
2023-01-21T00:54:45.122Z,1.90
2023-01-21T00:55:47.068Z,1.85
2023-01-21T00:56:49.104Z,1.48
2023-01-21T00:57:53.164Z,1.30
2023-01-21T00:58:55.408Z,1.63
2023-01-21T00:59:57.745Z,1.50
2023-01-21T01:01:21.793Z,2.20
2023-01-21T01:02:23.949Z,1.52
2023-01-21T01:03:25.888Z,1.50
2023-01-21T01:04:27.814Z,1.67
2023-01-21T01:05:29.965Z,1.60
2023-01-21T01:06:33.014Z,1.17
2023-01-21T01:07:35.488Z,2.70
2023-01-21T01:08:37.877Z,2.53
2023-01-21T01:09:39.802Z,2.08
2023-01-21T01:10:41.752Z,2.22
2023-01-21T01:11:43.959Z,1.98
2023-01-21T01:12:45.878Z,2.05
2023-01-21T01:13:47.823Z,1.40
2023-01-21T01:14:49.740Z,1.42
2023-01-21T01:15:55.957Z,1.85
2023-01-21T01:16:57.993Z,1.20
2023-01-21T01:17:59.959Z,1.92
2023-01-21T01:19:01.914Z,1.67
2023-01-21T01:20:04.593Z,2.00
2023-01-21T01:21:12.898Z,3.33
2023-01-21T01:22:14.894Z,2.58
2023-01-21T01:23:16.942Z,2.20
2023-01-21T01:24:18.909Z,1.00
2023-01-21T01:25:20.857Z,1.23
2023-01-21T01:26:22.983Z,0.90
2023-01-21T01:27:24.951Z,1.00
2023-01-21T01:28:27.665Z,1.60
2023-01-21T01:29:29.767Z,1.20
2023-01-21T01:30:31.915Z,3.35
2023-01-21T01:31:33.967Z,2.15
2023-01-21T01:32:36.000Z,1.45
2023-01-21T01:33:38.026Z,1.63
2023-01-21T01:34:39.979Z,2.75
2023-01-21T01:35:42.108Z,1.67
2023-01-21T01:36:44.056Z,1.55
2023-01-21T01:37:45.997Z,1.58
2023-01-21T01:38:47.938Z,1.48
2023-01-21T01:39:49.900Z,1.60
2023-01-21T01:40:53.322Z,2.90
2023-01-21T01:41:55.580Z,2.67
2023-01-21T01:42:57.513Z,1.70
2023-01-21T01:44:01.947Z,1.50
2023-01-21T01:45:07.269Z,2.53
2023-01-21T01:46:09.211Z,3.72
2023-01-21T01:47:11.248Z,2.38
2023-01-21T01:48:21.328Z,2.10
2023-01-21T01:49:23.512Z,2.10
2023-01-21T01:50:30.239Z,2.10
2023-01-21T01:51:51.078Z,2.33
2023-01-21T01:52:53.145Z,3.28
2023-01-21T01:53:55.172Z,3.00
2023-01-21T01:55:00.551Z,3.00
2023-01-21T01:56:03.064Z,2.70
2023-01-21T01:57:08.921Z,3.47
2023-01-21T01:58:13.979Z,2.78
2023-01-21T01:59:16.367Z,2.40
2023-01-21T02:00:19.044Z,2.20
2023-01-21T02:01:21.512Z,2.00
2023-01-21T02:02:23.519Z,2.08
2023-01-21T02:03:46.245Z,1.90
2023-01-21T02:04:56.548Z,1.70
2023-01-21T02:05:59.353Z,1.40
2023-01-21T02:07:01.339Z,1.83
2023-01-21T02:08:03.904Z,1.80
2023-01-21T02:09:06.000Z,2.10
2023-01-21T02:10:11.067Z,2.33
2023-01-21T02:11:18.523Z,1.13
2023-01-21T02:12:21.027Z,1.07
2023-01-21T02:13:27.298Z,0.90
2023-01-21T02:14:30.572Z,1.00
2023-01-21T02:15:59.823Z,0.90
2023-01-21T02:17:07.863Z,0.88
2023-01-21T02:18:38.199Z,0.85
2023-01-21T02:20:01.542Z,1.08
2023-01-21T02:21:34.006Z,0.90
2023-01-21T02:23:14.746Z,0.90
2023-01-21T02:24:42.391Z,1.05
2023-01-21T02:26:29.278Z,1.30
2023-01-21T02:28:06.515Z,1.23
2023-01-21T02:29:22.822Z,2.30
2023-01-21T02:30:55.304Z,2.70
2023-01-21T02:32:39.164Z,1.70
2023-01-21T02:33:46.437Z,1.60
2023-01-21T02:35:10.403Z,1.58
2023-01-21T02:36:22.935Z,1.33
2023-01-21T02:37:36.705Z,1.00
2023-01-21T02:39:18.644Z,1.20
2023-01-21T02:40:36.032Z,1.20
2023-01-21T02:41:56.075Z,1.60
2023-01-21T02:43:12.331Z,1.83
2023-01-21T02:44:37.241Z,1.90
2023-01-21T02:45:47.736Z,1.58
2023-01-21T02:46:58.080Z,1.25
2023-01-21T02:48:07.761Z,2.40
2023-01-21T02:49:50.550Z,2.25
2023-01-21T02:50:53.781Z,1.80
2023-01-21T02:51:55.761Z,1.67
2023-01-21T02:53:02.589Z,1.50
2023-01-21T02:54:36.890Z,1.48
2023-01-21T02:55:38.983Z,2.50
2023-01-21T02:56:43.105Z,2.20
2023-01-21T02:57:52.957Z,2.88
2023-01-21T02:59:00.496Z,2.58
2023-01-21T03:00:09.017Z,1.90
2023-01-21T03:01:19.808Z,1.92
2023-01-21T03:02:33.830Z,1.52
2023-01-21T03:04:07.847Z,1.67
2023-01-21T03:05:29.024Z,1.50
2023-01-21T03:06:55.028Z,1.90
2023-01-21T03:08:06.792Z,1.60
2023-01-21T03:09:27.154Z,1.83
2023-01-21T03:10:35.560Z,1.77
2023-01-21T03:11:37.560Z,2.20
2023-01-21T03:12:59.449Z,2.10
2023-01-21T03:14:32.171Z,2.40
2023-01-21T03:16:03.589Z,2.53
2023-01-21T03:17:21.671Z,2.20
2023-01-21T03:18:34.509Z,2.17
2023-01-21T03:19:55.297Z,2.42
2023-01-21T03:21:03.571Z,2.40
2023-01-21T03:22:11.270Z,2.30
2023-01-21T03:23:23.435Z,2.63
2023-01-21T03:24:25.815Z,2.50
2023-01-21T03:25:31.676Z,2.83
2023-01-21T03:26:38.819Z,2.72
2023-01-21T03:27:44.840Z,2.60
2023-01-21T03:28:52.398Z,2.33
2023-01-21T03:30:06.201Z,2.20
2023-01-21T03:31:14.244Z,2.00
2023-01-21T03:32:19.182Z,2.13
2023-01-21T03:33:23.118Z,1.90
2023-01-21T03:34:27.973Z,1.92
2023-01-21T03:35:34.617Z,1.98
2023-01-21T03:36:49.113Z,1.73
2023-01-21T03:38:24.736Z,2.00
2023-01-21T03:39:32.336Z,1.70
2023-01-21T03:40:48.654Z,1.63
2023-01-21T03:41:50.658Z,1.80
2023-01-21T03:42:56.227Z,1.80
2023-01-21T03:43:59.269Z,1.92
2023-01-21T03:45:01.878Z,2.10
2023-01-21T03:46:09.486Z,2.00
2023-01-21T03:47:28.746Z,2.00
2023-01-21T03:48:42.789Z,2.00
2023-01-21T03:49:54.859Z,2.10
2023-01-21T03:51:02.556Z,1.70
2023-01-21T03:52:06.379Z,1.95
2023-01-21T03:53:08.813Z,1.70
2023-01-21T03:54:10.820Z,2.00
2023-01-21T03:55:14.320Z,1.90
2023-01-21T03:56:16.292Z,1.67
2023-01-21T03:57:18.510Z,2.05
2023-01-21T03:58:20.523Z,2.22
2023-01-21T03:59:22.480Z,2.10
2023-01-21T04:00:24.505Z,2.17
2023-01-21T04:01:26.588Z,2.08
2023-01-21T04:02:29.145Z,2.05
2023-01-21T04:03:31.120Z,1.80
2023-01-21T04:04:33.190Z,1.70
2023-01-21T04:05:36.156Z,1.90
2023-01-21T04:06:38.188Z,1.83
2023-01-21T04:07:40.357Z,1.50
2023-01-21T04:08:42.349Z,1.92
2023-01-21T04:09:44.673Z,1.60
2023-01-21T04:10:46.634Z,1.70
2023-01-21T04:11:48.623Z,1.40
2023-01-21T04:12:50.568Z,1.50
2023-01-21T04:13:52.458Z,1.50
2023-01-21T04:14:54.407Z,1.70
2023-01-21T04:15:56.378Z,1.90
2023-01-21T04:16:58.316Z,1.45
2023-01-21T04:18:00.282Z,1.33
2023-01-21T04:19:02.257Z,1.20
2023-01-21T04:20:04.749Z,1.60
2023-01-21T04:21:06.699Z,1.60
2023-01-21T04:22:08.609Z,1.40
2023-01-21T04:23:10.739Z,2.40
2023-01-21T04:24:12.727Z,2.00
2023-01-21T04:25:14.789Z,1.60
2023-01-21T04:26:16.766Z,1.35
2023-01-21T04:27:18.755Z,1.98
2023-01-21T04:28:20.781Z,1.80
2023-01-21T04:29:22.791Z,1.80
2023-01-21T04:30:24.739Z,1.70
2023-01-21T04:31:26.721Z,1.60
2023-01-21T04:32:28.713Z,1.80
2023-01-21T04:33:30.787Z,1.70
2023-01-21T04:34:32.709Z,1.60
2023-01-21T04:35:37.816Z,1.60
2023-01-21T04:36:39.794Z,1.80
2023-01-21T04:37:41.723Z,1.90
2023-01-21T04:38:43.737Z,2.03
2023-01-21T04:39:45.623Z,1.90
2023-01-21T04:40:47.857Z,1.98
2023-01-21T04:41:50.290Z,1.95
2023-01-21T04:42:52.241Z,1.90
2023-01-21T04:43:54.246Z,2.05
2023-01-21T04:44:56.192Z,1.70
2023-01-21T04:45:58.273Z,1.90
2023-01-21T04:47:00.280Z,1.83
2023-01-21T04:48:02.280Z,2.10
2023-01-21T04:49:04.438Z,1.80
2023-01-21T04:50:06.753Z,2.10
2023-01-21T04:51:08.833Z,1.70
2023-01-21T04:52:10.809Z,1.90
2023-01-21T04:53:12.929Z,1.80
2023-01-21T04:54:14.902Z,1.70
2023-01-21T04:55:17.016Z,1.50
2023-01-21T04:56:18.952Z,1.90
2023-01-21T04:57:20.914Z,1.98
2023-01-21T04:58:23.048Z,1.90
2023-01-21T04:59:25.118Z,1.73
2023-01-21T05:00:27.069Z,1.90
2023-01-21T05:01:29.066Z,1.77
2023-01-21T05:02:31.398Z,1.70
2023-01-21T05:03:33.399Z,1.70
2023-01-21T05:04:35.376Z,1.65
2023-01-21T05:05:37.486Z,1.53
2023-01-21T05:06:39.482Z,1.60
2023-01-21T05:07:41.464Z,1.88
2023-01-21T05:08:43.426Z,1.80
2023-01-21T05:09:45.438Z,1.70
2023-01-21T05:10:47.513Z,1.80
2023-01-21T05:11:49.485Z,1.70
2023-01-21T05:12:51.615Z,1.90
2023-01-21T05:13:53.564Z,1.92
2023-01-21T05:14:58.992Z,1.60
2023-01-21T05:16:05.341Z,1.60
2023-01-21T05:17:07.705Z,1.65
2023-01-21T05:18:09.660Z,1.67
2023-01-21T05:19:11.961Z,1.73
2023-01-21T05:20:14.000Z,1.83
2023-01-21T05:21:15.962Z,1.70
2023-01-21T05:22:18.461Z,1.65
2023-01-21T05:23:20.375Z,1.70
2023-01-21T05:24:22.351Z,1.75
2023-01-21T05:25:24.252Z,1.63
2023-01-21T05:26:26.276Z,1.70
2023-01-21T05:27:28.475Z,1.58
2023-01-21T05:28:30.464Z,1.50
2023-01-21T05:29:32.427Z,1.30
2023-01-21T05:30:34.569Z,1.50
2023-01-21T05:31:37.127Z,1.65
2023-01-21T05:32:40.911Z,1.48
2023-01-21T05:33:45.468Z,1.50
2023-01-21T05:34:47.384Z,1.63
2023-01-21T05:35:49.322Z,1.70
2023-01-21T05:36:51.467Z,1.50
2023-01-21T05:37:53.559Z,1.80
2023-01-21T05:38:55.608Z,1.70
2023-01-21T05:39:57.757Z,2.50
2023-01-21T05:41:02.161Z,1.92
2023-01-21T05:42:04.163Z,1.98
2023-01-21T05:43:06.180Z,1.60
2023-01-21T05:44:09.761Z,1.80
2023-01-21T05:45:11.971Z,1.50
2023-01-21T05:46:14.024Z,1.40
2023-01-21T05:47:16.060Z,1.43
2023-01-21T05:48:18.063Z,1.60
2023-01-21T05:49:20.084Z,1.45
2023-01-21T05:50:22.165Z,1.73
2023-01-21T05:51:24.234Z,1.60
2023-01-21T05:52:26.187Z,1.80
2023-01-21T05:53:28.344Z,1.67
2023-01-21T05:54:30.604Z,1.50
2023-01-21T05:55:32.501Z,1.55
2023-01-21T05:56:34.499Z,1.50
2023-01-21T05:57:36.480Z,1.43
2023-01-21T05:58:38.518Z,1.65
2023-01-21T05:59:40.481Z,1.63
2023-01-21T06:00:42.563Z,1.50
2023-01-21T06:01:44.569Z,1.60
2023-01-21T06:02:46.479Z,1.50
2023-01-21T06:03:48.450Z,1.52
2023-01-21T06:04:50.497Z,1.67
2023-01-21T06:05:52.513Z,1.55
2023-01-21T06:06:54.689Z,1.92
2023-01-21T06:07:56.786Z,1.97
2023-01-21T06:08:59.020Z,1.90
2023-01-21T06:10:00.985Z,1.98
2023-01-21T06:11:03.029Z,2.85
2023-01-21T06:12:05.360Z,4.20
2023-01-21T06:13:07.605Z,5.72
2023-01-21T06:14:09.760Z,5.60
2023-01-21T06:15:11.977Z,6.35
2023-01-21T06:16:13.955Z,6.13
2023-01-21T06:17:16.009Z,5.97
2023-01-21T06:18:17.956Z,5.50
2023-01-21T06:19:20.088Z,4.90
2023-01-21T06:20:22.181Z,4.88
2023-01-21T06:21:24.136Z,4.68
2023-01-21T06:22:26.147Z,4.25
2023-01-21T06:23:28.101Z,5.22
2023-01-21T06:24:30.126Z,4.85
2023-01-21T06:25:32.947Z,4.60
2023-01-21T06:26:34.913Z,5.07
2023-01-21T06:27:38.354Z,4.40
2023-01-21T06:28:40.330Z,5.27
2023-01-21T06:29:42.318Z,4.20
2023-01-21T06:30:44.720Z,4.40
2023-01-21T06:31:46.822Z,5.72
2023-01-21T06:32:49.022Z,6.05
2023-01-21T06:33:50.941Z,5.75
2023-01-21T06:34:52.881Z,5.88
2023-01-21T06:35:54.858Z,6.38
2023-01-21T06:36:56.882Z,5.40
2023-01-21T06:37:58.804Z,5.00
2023-01-21T06:39:00.692Z,4.20
2023-01-21T06:40:02.767Z,3.30
2023-01-21T06:41:05.261Z,3.42
2023-01-21T06:42:07.235Z,4.57
2023-01-21T06:43:09.205Z,4.43
2023-01-21T06:44:11.173Z,3.28
2023-01-21T06:45:13.464Z,2.50
2023-01-21T06:46:15.720Z,3.00
2023-01-21T06:47:17.750Z,2.60
2023-01-21T06:48:19.888Z,2.72
2023-01-21T06:49:21.814Z,2.70
2023-01-21T06:50:23.851Z,3.28
2023-01-21T06:51:26.030Z,3.50
2023-01-21T06:52:27.991Z,4.15
2023-01-21T06:53:29.936Z,3.60
2023-01-21T06:54:31.981Z,3.20
2023-01-21T06:55:34.092Z,2.80
2023-01-21T06:56:36.986Z,2.58
2023-01-21T06:57:40.129Z,2.10
2023-01-21T06:58:42.075Z,2.40
2023-01-21T06:59:44.169Z,2.23
2023-01-21T07:00:46.386Z,2.22
2023-01-21T07:01:48.551Z,2.33
2023-01-21T07:02:50.611Z,2.88
2023-01-21T07:03:52.620Z,2.53
2023-01-21T07:04:55.089Z,1.92
2023-01-21T07:05:57.657Z,1.90
2023-01-21T07:06:59.639Z,1.90
2023-01-21T07:08:01.557Z,1.85
2023-01-21T07:09:03.977Z,2.10
2023-01-21T07:10:06.570Z,2.60
2023-01-21T07:11:08.673Z,2.65
2023-01-21T07:12:10.742Z,3.60
2023-01-21T07:13:12.877Z,3.67
2023-01-21T07:14:14.912Z,3.40
2023-01-21T07:15:17.556Z,3.25
2023-01-21T07:16:19.713Z,2.97
2023-01-21T07:17:23.166Z,2.65
2023-01-21T07:18:25.196Z,2.42
2023-01-21T07:19:27.232Z,2.47
2023-01-21T07:20:29.336Z,2.50
2023-01-21T07:21:31.483Z,2.40
2023-01-21T07:22:34.392Z,2.80
2023-01-21T07:23:36.323Z,3.35
2023-01-21T07:24:38.334Z,2.70
2023-01-21T07:25:40.259Z,3.30
2023-01-21T07:26:43.240Z,3.60
2023-01-21T07:27:45.214Z,2.47
2023-01-21T07:28:47.450Z,2.33
2023-01-21T07:29:49.415Z,2.40
2023-01-21T07:30:51.655Z,1.70
2023-01-21T07:31:53.757Z,2.25
2023-01-21T07:32:56.103Z,1.90
2023-01-21T07:33:58.295Z,2.47
2023-01-21T07:35:00.205Z,2.47
2023-01-21T07:36:02.471Z,3.65
2023-01-21T07:37:04.443Z,3.15
2023-01-21T07:38:06.831Z,3.80
2023-01-21T07:39:08.878Z,2.65
2023-01-21T07:40:11.404Z,3.17
2023-01-21T07:41:13.402Z,3.37
2023-01-21T07:42:15.401Z,2.30
2023-01-21T07:43:18.022Z,2.70
2023-01-21T07:44:20.209Z,2.00
2023-01-21T07:45:23.394Z,1.73
2023-01-21T07:46:26.823Z,1.83
2023-01-21T07:47:30.120Z,1.50
2023-01-21T07:48:32.169Z,1.65
2023-01-21T07:49:34.165Z,1.55
2023-01-21T07:50:36.318Z,1.60
2023-01-21T07:51:38.377Z,1.30
2023-01-21T07:52:40.681Z,1.23
2023-01-21T07:53:42.895Z,1.20
2023-01-21T07:54:44.977Z,1.48
2023-01-21T07:55:46.909Z,1.10
2023-01-21T07:56:48.889Z,1.20
2023-01-21T07:57:52.441Z,1.10
2023-01-21T07:58:54.943Z,1.23
2023-01-21T07:59:56.866Z,1.00
2023-01-21T08:00:58.852Z,1.30
2023-01-21T08:02:00.888Z,7.43
2023-01-21T08:03:02.937Z,8.48
2023-01-21T08:04:07.092Z,10.10
2023-01-21T08:05:10.149Z,11.15
2023-01-21T08:06:12.151Z,13.93
2023-01-21T08:07:14.500Z,13.23
2023-01-21T08:08:16.475Z,5.68
2023-01-21T08:09:18.493Z,5.43
2023-01-21T08:10:22.270Z,2.60
2023-01-21T08:11:24.243Z,4.15
2023-01-21T08:12:27.328Z,2.13
2023-01-21T08:13:29.410Z,2.85
2023-01-21T08:14:32.213Z,1.98
2023-01-21T08:15:34.184Z,2.28
2023-01-21T08:16:36.245Z,1.70
2023-01-21T08:17:41.985Z,2.38
2023-01-21T08:18:43.930Z,2.17
2023-01-21T08:19:45.931Z,2.38
2023-01-21T08:20:48.391Z,2.83
2023-01-21T08:21:51.344Z,4.13
2023-01-21T08:22:53.291Z,4.80
2023-01-21T08:23:55.377Z,4.78
2023-01-21T08:24:57.351Z,4.30
2023-01-21T08:26:03.900Z,4.43
2023-01-21T08:27:05.867Z,2.90
2023-01-21T08:28:07.887Z,3.78
2023-01-21T08:29:09.902Z,3.10
2023-01-21T08:30:12.202Z,3.20
2023-01-21T08:31:14.717Z,2.60
2023-01-21T08:32:16.776Z,3.30
2023-01-21T08:33:18.814Z,4.70
2023-01-21T08:34:20.992Z,4.03
2023-01-21T08:35:23.012Z,3.40
2023-01-21T08:36:25.248Z,2.80
2023-01-21T08:37:27.314Z,6.70
2023-01-21T08:38:29.437Z,4.18
2023-01-21T08:39:31.446Z,2.03
2023-01-21T08:40:33.503Z,1.88
2023-01-21T08:41:35.547Z,2.00
2023-01-21T08:42:37.624Z,1.92
2023-01-21T08:43:40.653Z,2.70
2023-01-21T08:44:42.604Z,3.63
2023-01-21T08:45:44.613Z,2.67
2023-01-21T08:46:46.567Z,2.95
2023-01-21T08:47:48.815Z,2.83
2023-01-21T08:48:51.693Z,3.83
2023-01-21T08:49:53.635Z,3.50
2023-01-21T08:50:59.959Z,3.70
2023-01-21T08:53:16.088Z,4.03
2023-01-21T08:54:45.092Z,3.90
2023-01-21T08:56:03.364Z,3.50
2023-01-21T08:57:25.083Z,3.00
2023-01-21T08:58:40.817Z,4.20
2023-01-21T09:00:02.103Z,3.08
2023-01-21T09:01:15.731Z,2.80
2023-01-21T09:02:37.110Z,4.90
2023-01-21T09:03:45.723Z,4.18
2023-01-21T09:05:07.090Z,3.90
2023-01-21T09:06:15.724Z,3.70
2023-01-21T09:07:23.852Z,4.00
2023-01-21T09:08:39.147Z,4.07
2023-01-21T09:09:48.605Z,4.00
2023-01-21T09:11:16.115Z,3.88
2023-01-21T09:13:46.149Z,3.70
2023-01-21T09:14:54.753Z,2.47
2023-01-21T09:16:16.216Z,6.18
2023-01-21T09:17:45.154Z,4.30
2023-01-21T09:19:32.503Z,5.80
2023-01-21T09:20:54.184Z,6.07
2023-01-21T09:21:56.264Z,7.47
2023-01-21T09:22:59.052Z,5.50
2023-01-21T09:24:01.274Z,5.50
2023-01-21T09:25:10.213Z,6.43
2023-01-21T09:26:20.998Z,6.60
2023-01-21T09:27:36.137Z,5.33
2023-01-21T09:29:08.177Z,5.72
2023-01-21T09:30:17.283Z,5.25
2023-01-21T09:31:39.221Z,5.82
2023-01-21T09:32:47.295Z,7.20
2023-01-21T09:34:05.405Z,3.55
2023-01-21T09:35:20.165Z,3.15
2023-01-21T09:38:04.206Z,6.65
2023-01-21T09:39:12.787Z,7.03
2023-01-21T09:40:37.169Z,8.10
2023-01-21T09:43:50.236Z,6.78
2023-01-21T09:45:08.196Z,6.28
2023-01-21T09:46:30.704Z,6.22
2023-01-21T09:47:39.882Z,5.65
2023-01-21T09:48:45.887Z,7.90
2023-01-21T09:50:03.058Z,6.53
2023-01-21T09:51:20.952Z,5.75
2023-01-21T09:52:29.224Z,5.80
2023-01-21T09:53:52.358Z,5.70
2023-01-21T09:55:26.259Z,5.63
2023-01-21T10:00:14.267Z,5.03
2023-01-21T10:03:15.262Z,4.10
2023-01-21T10:04:36.570Z,5.20
2023-01-21T10:06:16.256Z,5.10
2023-01-21T10:07:37.044Z,4.20
2023-01-21T10:09:14.300Z,4.47
2023-01-21T10:10:57.286Z,4.07
2023-01-21T10:13:13.288Z,3.67
2023-01-21T10:14:15.280Z,3.20
2023-01-21T10:15:49.632Z,3.23
2023-01-21T10:18:37.372Z,5.20
2023-01-21T10:19:59.292Z,3.67
2023-01-21T10:22:28.308Z,2.80
2023-01-21T10:23:50.380Z,2.92
2023-01-21T10:25:13.312Z,3.40
2023-01-21T10:26:29.306Z,3.72
2023-01-21T10:31:34.435Z,6.57
2023-01-21T10:32:57.372Z,6.40
2023-01-21T10:34:20.103Z,5.53
2023-01-21T10:37:42.316Z,5.80
2023-01-21T10:43:30.361Z,5.93
2023-01-21T10:45:14.504Z,5.85
2023-01-21T10:46:49.553Z,5.77
2023-01-21T10:48:12.264Z,5.90
2023-01-21T10:49:33.394Z,6.43
2023-01-21T10:50:58.619Z,6.28
2023-01-21T10:54:32.451Z,5.68
2023-01-21T10:56:08.402Z,4.28
2023-01-21T10:57:56.406Z,3.85
2023-01-21T10:59:19.792Z,3.83
2023-01-21T11:00:51.438Z,4.95
2023-01-21T11:03:32.001Z,5.13
2023-01-21T11:04:35.819Z,4.68
2023-01-21T11:05:38.708Z,4.70
2023-01-21T11:06:40.967Z,3.60
2023-01-21T11:08:46.494Z,3.13
2023-01-21T11:09:48.907Z,3.90
2023-01-21T11:10:55.879Z,3.05
2023-01-21T11:13:11.881Z,3.37
2023-01-21T11:14:26.453Z,3.05
2023-01-21T11:15:39.538Z,4.03
2023-01-21T11:20:41.357Z,2.70
2023-01-21T11:22:14.460Z,2.90
2023-01-21T11:23:45.410Z,4.40
2023-01-21T11:25:14.598Z,6.40
2023-01-21T11:26:46.466Z,2.60
2023-01-21T11:28:03.311Z,2.30
2023-01-21T11:29:30.469Z,2.63
2023-01-21T11:30:55.179Z,3.00
2023-01-21T11:33:33.538Z,3.10
2023-01-21T11:34:54.586Z,3.72
2023-01-21T11:36:27.456Z,2.70
2023-01-21T11:37:37.781Z,2.25
2023-01-21T11:38:40.358Z,2.42
2023-01-21T11:39:56.349Z,2.70
2023-01-21T11:41:19.840Z,2.60
2023-01-21T11:42:23.224Z,3.10
2023-01-21T11:43:41.402Z,3.10
2023-01-21T11:44:53.933Z,3.47
2023-01-21T11:45:57.185Z,3.40
2023-01-21T11:46:59.362Z,3.60
2023-01-21T11:48:01.662Z,3.15
2023-01-21T11:49:09.675Z,2.70
2023-01-21T11:50:28.470Z,2.53
2023-01-21T11:51:30.416Z,2.70
2023-01-21T11:52:32.343Z,2.40
2023-01-21T11:53:34.349Z,3.05
2023-01-21T11:54:42.272Z,3.13
2023-01-21T11:55:55.098Z,3.00
2023-01-21T11:56:58.622Z,3.30
2023-01-21T11:58:00.651Z,3.88
2023-01-21T11:59:11.051Z,3.00
2023-01-21T12:00:23.778Z,2.53
2023-01-21T12:01:25.792Z,2.33
2023-01-21T12:02:40.985Z,2.63
2023-01-21T12:03:51.620Z,2.30
2023-01-21T12:04:59.129Z,2.38
2023-01-21T12:06:02.045Z,2.92
2023-01-21T12:07:05.537Z,2.72
2023-01-21T12:08:13.399Z,2.53
2023-01-21T12:09:20.025Z,2.92
2023-01-21T12:10:27.763Z,3.20
2023-01-21T12:11:31.519Z,3.78
2023-01-21T12:12:52.036Z,3.80
2023-01-21T12:14:07.177Z,3.97
2023-01-21T12:15:24.577Z,3.65
2023-01-21T12:17:14.325Z,4.00
2023-01-21T12:18:28.261Z,3.47
2023-01-21T12:19:53.362Z,3.92
2023-01-21T12:20:58.145Z,3.30
2023-01-21T12:22:16.542Z,3.10
2023-01-21T12:23:35.362Z,5.88
2023-01-21T12:24:48.032Z,3.67
2023-01-21T12:26:03.829Z,4.30
2023-01-21T12:27:24.230Z,3.90
2023-01-21T12:28:44.548Z,4.40
2023-01-21T12:30:09.838Z,5.28
2023-01-21T12:31:32.818Z,5.10
2023-01-21T12:32:41.530Z,4.40
2023-01-21T12:33:58.950Z,4.60
2023-01-21T12:35:28.042Z,5.15
2023-01-21T12:37:08.026Z,5.50
2023-01-21T12:38:26.836Z,5.35
2023-01-21T12:39:37.946Z,5.82
2023-01-21T12:40:45.947Z,5.70
2023-01-21T12:41:59.565Z,5.22
2023-01-21T12:43:08.475Z,7.20
2023-01-21T12:44:19.862Z,9.88
2023-01-21T12:45:29.372Z,9.27
2023-01-21T12:46:40.998Z,6.90
2023-01-21T12:47:56.777Z,6.07
2023-01-21T12:49:11.002Z,7.85
2023-01-21T12:50:24.766Z,5.20
2023-01-21T12:51:32.615Z,5.70
2023-01-21T12:52:44.838Z,5.97
2023-01-21T12:53:56.062Z,5.18
2023-01-21T12:55:18.644Z,5.43
2023-01-21T12:56:35.158Z,5.50
2023-01-21T12:57:48.297Z,7.85
2023-01-21T12:59:25.114Z,6.45
2023-01-21T13:00:31.808Z,5.78
2023-01-21T13:01:40.720Z,4.97
2023-01-21T13:02:57.103Z,4.78
2023-01-21T13:04:06.709Z,4.78
2023-01-21T13:05:23.443Z,5.07
2023-01-21T13:06:53.596Z,5.40
2023-01-21T13:08:04.665Z,6.10
2023-01-21T13:09:44.055Z,4.25
2023-01-21T13:10:50.133Z,4.50
2023-01-21T13:11:58.135Z,4.90
2023-01-21T13:13:09.775Z,3.70
2023-01-21T13:14:30.109Z,3.53
2023-01-21T13:15:35.678Z,3.50
2023-01-21T13:17:01.949Z,3.63
2023-01-21T13:18:12.977Z,4.30
2023-01-21T13:19:16.069Z,5.22
2023-01-21T13:20:22.525Z,4.85
2023-01-21T13:21:28.454Z,3.30
2023-01-21T13:22:39.933Z,3.90
2023-01-21T13:23:45.094Z,3.90
2023-01-21T13:24:56.302Z,3.80
2023-01-21T13:26:21.494Z,3.40
2023-01-21T13:27:30.342Z,4.35
2023-01-21T13:28:39.522Z,5.05
2023-01-21T13:30:15.503Z,3.70
2023-01-21T13:31:29.052Z,7.03
2023-01-21T13:32:43.230Z,4.63
2023-01-21T13:33:57.559Z,5.65
2023-01-21T13:35:50.266Z,7.82
2023-01-21T13:37:01.290Z,6.47
2023-01-21T13:38:15.152Z,4.60
2023-01-21T13:39:33.013Z,5.15
2023-01-21T13:40:41.470Z,7.38
2023-01-21T13:42:18.041Z,6.03
2023-01-21T13:43:23.126Z,6.47
2023-01-21T13:44:40.563Z,6.10
2023-01-21T13:46:01.232Z,5.88
2023-01-21T13:47:12.574Z,6.38
2023-01-21T13:48:46.096Z,5.43
2023-01-21T13:50:06.794Z,6.22
2023-01-21T13:51:39.505Z,5.53
2023-01-21T13:52:58.989Z,7.38
2023-01-21T13:54:41.498Z,5.80
2023-01-21T13:55:57.339Z,6.63
2023-01-21T13:57:08.541Z,5.93
2023-01-21T13:58:20.796Z,7.03
2023-01-21T13:59:36.704Z,6.65
2023-01-21T14:00:59.202Z,13.07
2023-01-21T14:02:37.848Z,8.77
2023-01-21T14:03:39.733Z,7.40
2023-01-21T14:05:12.508Z,7.55
2023-01-21T14:06:32.178Z,8.02
2023-01-21T14:07:45.190Z,6.78
2023-01-21T14:08:50.290Z,6.13
2023-01-21T14:10:10.862Z,6.47
2023-01-21T14:11:31.049Z,6.57
2023-01-21T14:13:10.696Z,7.35
2023-01-21T14:14:31.453Z,7.20
2023-01-21T14:15:57.483Z,7.50
2023-01-21T14:17:33.102Z,6.82
2023-01-21T14:18:53.959Z,7.93
2023-01-21T14:20:30.046Z,9.85
2023-01-21T14:22:04.358Z,9.75
2023-01-21T14:23:15.169Z,7.17
2023-01-21T14:24:50.719Z,8.83
2023-01-21T14:26:20.067Z,7.95
2023-01-21T14:27:28.018Z,16.38
2023-01-21T14:28:59.303Z,15.85
2023-01-21T14:30:17.945Z,7.80
2023-01-21T14:31:31.270Z,7.18
2023-01-21T14:32:40.912Z,7.47
2023-01-21T14:33:46.877Z,9.73
2023-01-21T14:35:07.070Z,17.73
2023-01-21T14:36:18.915Z,17.13
2023-01-21T14:37:32.893Z,9.90
2023-01-21T14:38:40.877Z,9.35
2023-01-21T14:40:06.000Z,9.30
2023-01-21T14:41:10.696Z,7.80
2023-01-21T14:42:16.381Z,7.00
2023-01-21T14:43:38.252Z,7.88
2023-01-21T14:44:45.227Z,7.18
2023-01-21T14:45:50.023Z,8.23
2023-01-21T14:47:14.748Z,10.05
2023-01-21T14:48:39.837Z,7.20
2023-01-21T14:49:53.283Z,6.27
2023-01-21T14:51:11.002Z,6.20
2023-01-21T14:52:21.909Z,5.90
2023-01-21T14:53:26.191Z,6.15
2023-01-21T14:54:28.347Z,6.68
2023-01-21T14:55:32.789Z,6.45
2023-01-21T14:56:36.672Z,6.80
2023-01-21T14:57:40.653Z,6.22
2023-01-21T14:58:51.394Z,6.90
2023-01-21T15:00:01.775Z,5.90
2023-01-21T15:01:07.200Z,6.77
2023-01-21T15:02:35.828Z,7.00
2023-01-21T15:03:49.259Z,7.20
2023-01-21T15:05:04.395Z,6.90
2023-01-21T15:06:09.931Z,6.68
2023-01-21T15:07:21.713Z,5.88
2023-01-21T15:08:45.408Z,6.05
2023-01-21T15:09:55.626Z,5.50
2023-01-21T15:11:08.251Z,7.30
2023-01-21T15:12:23.857Z,7.00
2023-01-21T15:13:35.602Z,7.10
2023-01-21T15:14:40.946Z,6.75
2023-01-21T15:16:16.099Z,6.80
2023-01-21T15:17:55.545Z,8.68
2023-01-21T15:19:12.894Z,5.95
2023-01-21T15:21:00.758Z,8.23
2023-01-21T15:22:38.905Z,8.85
2023-01-21T15:23:40.992Z,7.25
2023-01-21T15:25:07.158Z,7.40
2023-01-21T15:26:09.078Z,7.67
2023-01-21T15:27:22.823Z,7.00
2023-01-21T15:28:25.132Z,7.05
2023-01-21T15:29:36.776Z,7.13
2023-01-21T15:30:53.957Z,8.23
2023-01-21T15:32:26.030Z,8.10
2023-01-21T15:33:29.911Z,8.10
2023-01-21T15:34:34.738Z,7.60
2023-01-21T15:35:42.015Z,6.35
2023-01-21T15:36:47.677Z,6.85
2023-01-21T15:37:52.917Z,5.50
2023-01-21T15:39:02.694Z,6.00
2023-01-21T15:40:28.910Z,8.90
2023-01-21T15:41:42.387Z,9.65
2023-01-21T15:42:53.075Z,7.72
2023-01-21T15:44:04.746Z,7.53
2023-01-21T15:45:41.251Z,7.20
2023-01-21T15:46:46.495Z,8.15
2023-01-21T15:48:08.475Z,7.10
2023-01-21T15:49:31.167Z,7.65
2023-01-21T15:50:40.382Z,8.10
2023-01-21T15:52:01.620Z,8.60
2023-01-21T15:53:14.951Z,9.05
2023-01-21T15:54:29.013Z,9.13
2023-01-21T15:55:57.217Z,9.40
2023-01-21T15:57:10.807Z,9.57
2023-01-21T15:58:32.386Z,10.98